LCLKOSKL

Guest
Details From LCLK - Larnaca
To OSKL - KAMISHLY
Flight Number -
Tags decoded
Created
Modified
Stats Distance 425 nm / 787 km
Max Altitude 0 ft / 0 m
Waypoints 10
Social Downloads 2
Likes 0
Share VATSIM

Download

Looking for another format? Having issues loading an existing format? Contact us
Advertisement - Login to hide

Notes

Requested: LCLK LCK UM978 NIKAS R785 BAN W6 ALE UM861 TABQA W5 HAS UL572 KML OSKL Unmatched points: LCK UM978 UM861 UL572

Route

LCLK NIKAS BAN W6 ALE TABQA HAS KML OSKL

ID Type Via Altitude Latitude Longitude Leg Dist Tot Dist Heading (true) Name
O LCLK APT - 0 ft / 0 m 34.87512˚ 33.62483˚ - 0 nm - Larnaca
NIKAS FIX - 0 ft / 0 m 35.19333˚ 35.71667˚ 104 nm 104 nm 79° / 80° -
BAN NDB - 0 ft / 0 m 35.22829˚ 35.95792˚ 12 nm 116 nm 80° / 80° BANIAS NDB
SALIM FIX W6 (AWY-HI) 0 ft / 0 m 35.49583˚ 36.31111˚ 23 nm 140 nm 47° / 47° -
LUBAM FIX W6 (AWY-LO) 0 ft / 0 m 35.66698˚ 36.53319˚ 14 nm 155 nm 46° / 47° -
ALE NDB W6 (AWY-HI) 0 ft / 0 m 36.17797˚ 37.20656˚ 44 nm 200 nm 47° / 47° ALEPPO NDB
TABQA FIX - 0 ft / 0 m 35.78235˚ 38.56642˚ 70 nm 270 nm 109° / 110° -
HAS NDB - 0 ft / 0 m 36.48289˚ 40.75456˚ 114 nm 384 nm 68° / 69° HASSAKEH NDB
KML NDB - 0 ft / 0 m 37.03031˚ 41.20531˚ 39 nm 423 nm 33° / 34° KAMISHLY NDB
O OSKL APT - 0 ft / 0 m 37.02063˚ 41.19140˚ 0 nm 424 nm 229° / 229° KAMISHLY

Altitude Profile

Advertisement - Login to hide

Weather


0- 5 10 15 20 25 30 35+ Temperature / ° C

Clouds and Precipitation
Forecast for 2018-05-20 12:00 UTC. Updated an hour ago

Ground ~20,000 ft ~40,000 ft Winds

LCLK

Details ICAO LCLK (LCA)
Name Larnaca
Region Cyprus
Timezone Asia/Nicosia (UTC+3.0)
Stats Elevation 8 ft / 2 m (AMSL)
Location 34.875115° 33.624832°
Runways 1
Magnetic Variation 5.028° E

METAR

LCLK 201030Z 19014KT 9999 FEW040 34/08 Q1009 NOSIG

Decode

TAF

TAF LCLK 200530Z 2006/2106 30006KT 9999 FEW020 BECMG 2009/2012 20012KT BECMG 2015/2018 33007KT

Decode

Departure Runways

ID Width Length Bearing (true) Bearing (mag) Surface Threshold Offset Overrun Length
04 148 ft / 45 m 9,771 ft / 2,978 m 45.15° 40.12° Asphalt 0 ft / 0 m 210 ft / 64 m
22 148 ft / 45 m 9,771 ft / 2,978 m 225.17° 220.14° Asphalt 575 ft / 175 m 0 ft / 0 m

OSKL

Details ICAO OSKL (KAC)
Name KAMISHLY
Region Syria
Timezone Asia/Damascus (UTC+3.0)
Stats Elevation 1,480 ft / 451 m (AMSL)
Location 37.020628° 41.191401°
Runways 1
Magnetic Variation 5.495° E

METAR

OSKL 201000Z 17014KT 9999 SCT026 BKN100 35/04 Q1011

Decode

TAF

Not found

Destination Runways

ID Width Length Bearing (true) Bearing (mag) Surface Threshold Offset Overrun Length
03 150 ft / 46 m 11,870 ft / 3,618 m 38.76° 33.26° Asphalt 0 ft / 0 m 0 ft / 0 m
21 150 ft / 46 m 11,870 ft / 3,618 m 218.78° 213.28° Asphalt 0 ft / 0 m 0 ft / 0 m

Popular Alternatives